createdAt,value
2022-12-11T00:00:43.804Z,100904.66
2022-12-11T00:03:15.650Z,100894.88
2022-12-11T00:05:43.298Z,100895.72
2022-12-11T00:08:10.161Z,100886.19
2022-12-11T00:10:38.042Z,100890.66
2022-12-11T00:13:05.324Z,100894.25
2022-12-11T00:15:33.233Z,100881.84
2022-12-11T00:17:59.787Z,100885.44
2022-12-11T00:20:26.340Z,100882.84
2022-12-11T00:22:52.876Z,100878.41
2022-12-11T00:25:19.370Z,100876.59
2022-12-11T00:27:46.228Z,100873.09
2022-12-11T00:30:13.592Z,100875.81
2022-12-11T00:32:41.512Z,100870.44
2022-12-11T00:35:09.285Z,100862.47
2022-12-11T00:37:36.067Z,100859.91
2022-12-11T00:40:02.677Z,100854.69
2022-12-11T00:42:29.235Z,100859.91
2022-12-11T00:44:55.723Z,100862.53
2022-12-11T00:47:22.276Z,100858.19
2022-12-11T00:49:50.390Z,100859.91
2022-12-11T00:52:16.965Z,100861.72
2022-12-11T00:54:43.456Z,100861.78
2022-12-11T00:57:09.977Z,100863.50
2022-12-11T00:59:36.508Z,100864.38
2022-12-11T01:02:03.156Z,100860.84
2022-12-11T01:04:29.716Z,100856.63
2022-12-11T01:06:57.655Z,100855.78
2022-12-11T01:09:24.175Z,100860.13
2022-12-11T01:11:50.733Z,100860.06
2022-12-11T01:14:17.289Z,100860.91
2022-12-11T01:16:43.982Z,100859.13
2022-12-11T01:19:10.558Z,100864.44
2022-12-11T01:21:37.122Z,100863.63
2022-12-11T01:24:05.744Z,100869.03
2022-12-11T01:26:32.261Z,100871.59
2022-12-11T01:28:58.813Z,100869.81
2022-12-11T01:31:25.461Z,100866.47
2022-12-11T01:33:54.095Z,100864.84
2022-12-11T01:36:21.946Z,100875.50
2022-12-11T01:38:49.583Z,100875.50
2022-12-11T01:41:18.228Z,100865.81
2022-12-11T01:43:59.159Z,100857.09
2022-12-11T01:46:26.570Z,100871.13
2022-12-11T01:48:54.113Z,100864.97
2022-12-11T01:51:21.065Z,100861.31
2022-12-11T01:53:53.562Z,100861.22
2022-12-11T01:56:21.633Z,100867.38
2022-12-11T01:58:53.783Z,100875.34
2022-12-11T02:01:25.325Z,100874.41
2022-12-11T02:03:53.414Z,100868.19
2022-12-11T02:06:35.406Z,100868.19
2022-12-11T02:09:03.226Z,100867.38
2022-12-11T02:11:39.242Z,100865.69
2022-12-11T02:14:10.897Z,100863.81
2022-12-11T02:16:45.623Z,100870.84
2022-12-11T02:19:30.813Z,100867.25
2022-12-11T02:22:01.374Z,100867.25
2022-12-11T02:24:40.818Z,100867.25
2022-12-11T02:27:28.564Z,100874.41
2022-12-11T02:30:01.915Z,100874.41
2022-12-11T02:32:32.567Z,100871.59
2022-12-11T02:35:06.821Z,100871.53
2022-12-11T02:37:37.622Z,100867.09
2022-12-11T02:40:07.631Z,100868.03
2022-12-11T02:42:36.532Z,100860.00
2022-12-11T02:45:07.350Z,100863.41
2022-12-11T02:47:34.144Z,100868.66
2022-12-11T02:50:04.186Z,100861.44
2022-12-11T02:52:32.307Z,100864.09
2022-12-11T02:55:00.788Z,100865.06
2022-12-11T02:57:33.694Z,100861.44
2022-12-11T03:00:00.312Z,100866.69
2022-12-11T03:02:28.336Z,100862.31
2022-12-11T03:04:54.986Z,100869.41
2022-12-11T03:07:25.798Z,100868.59
2022-12-11T03:09:52.944Z,100867.78
2022-12-11T03:12:24.062Z,100866.94
2022-12-11T03:14:50.895Z,100867.84
2022-12-11T03:17:21.061Z,100865.31
2022-12-11T03:19:57.415Z,100868.03
2022-12-11T03:22:31.227Z,100871.59
2022-12-11T03:25:02.508Z,100869.91
2022-12-11T03:27:36.129Z,100870.84
2022-12-11T03:30:06.524Z,100875.97
2022-12-11T03:32:39.645Z,100870.66
2022-12-11T03:35:14.527Z,100872.41
2022-12-11T03:37:43.441Z,100869.56
2022-12-11T03:40:14.453Z,100870.38
2022-12-11T03:42:42.597Z,100877.38
2022-12-11T03:45:10.794Z,100864.09
2022-12-11T03:47:39.734Z,100866.75
2022-12-11T03:50:10.842Z,100864.09
2022-12-11T03:52:45.345Z,100869.41
2022-12-11T03:55:13.851Z,100873.78
2022-12-11T03:57:40.385Z,100871.25
2022-12-11T04:00:10.829Z,100869.41
2022-12-11T04:02:37.362Z,100859.75
2022-12-11T04:05:04.391Z,100869.41
2022-12-11T04:07:32.322Z,100869.28
2022-12-11T04:10:00.241Z,100868.34
2022-12-11T04:12:26.774Z,100873.72
2022-12-11T04:14:53.302Z,100874.59
2022-12-11T04:17:20.055Z,100866.63
2022-12-11T04:19:46.547Z,100868.34
2022-12-11T04:22:14.571Z,100869.28
2022-12-11T04:24:42.582Z,100865.69
2022-12-11T04:27:09.110Z,100862.94
2022-12-11T04:29:35.678Z,100861.31
2022-12-11T04:32:02.240Z,100863.97
2022-12-11T04:34:29.031Z,100859.44
2022-12-11T04:36:55.646Z,100862.00
2022-12-11T04:39:22.178Z,100857.56
2022-12-11T04:41:50.034Z,100855.78
2022-12-11T04:44:16.614Z,100860.22
2022-12-11T04:46:43.207Z,100862.06
2022-12-11T04:49:09.888Z,100857.56
2022-12-11T04:51:36.470Z,100853.03
2022-12-11T04:54:03.062Z,100858.25
2022-12-11T04:56:29.590Z,100855.53
2022-12-11T04:58:57.417Z,100859.13
2022-12-11T05:01:24.100Z,100867.94
2022-12-11T05:03:50.712Z,100857.50
2022-12-11T05:06:17.573Z,100848.69
2022-12-11T05:08:44.435Z,100855.66
2022-12-11T05:11:12.824Z,100847.03
2022-12-11T05:13:39.422Z,100842.63
2022-12-11T05:16:09.689Z,100849.78
2022-12-11T05:18:36.392Z,100840.94
2022-12-11T05:21:05.435Z,100837.44
2022-12-11T05:23:32.785Z,100834.78
2022-12-11T05:26:01.260Z,100836.63
2022-12-11T05:28:31.818Z,100827.91
2022-12-11T05:31:00.395Z,100826.34
2022-12-11T05:33:28.880Z,100828.06
2022-12-11T05:35:55.446Z,100824.63
2022-12-11T05:38:22.007Z,100818.41
2022-12-11T05:40:55.836Z,100821.06
2022-12-11T05:43:22.366Z,100828.16
2022-12-11T05:45:48.892Z,100814.88
2022-12-11T05:48:15.453Z,100822.84
2022-12-11T05:50:43.319Z,100835.25
2022-12-11T05:53:09.795Z,100836.97
2022-12-11T05:55:36.355Z,100843.03
2022-12-11T05:58:02.942Z,100836.00
2022-12-11T06:00:35.710Z,100838.75
2022-12-11T06:03:02.909Z,100837.91
2022-12-11T06:05:29.516Z,100829.25
2022-12-11T06:07:57.424Z,100835.41
2022-12-11T06:10:24.005Z,100828.22
2022-12-11T06:12:50.547Z,100826.59
2022-12-11T06:15:17.186Z,100827.34
2022-12-11T06:17:43.720Z,100828.22
2022-12-11T06:20:11.020Z,100819.31
2022-12-11T06:22:37.543Z,100819.31
2022-12-11T06:25:06.776Z,100813.94
2022-12-11T06:27:33.551Z,100820.25
2022-12-11T06:30:00.149Z,100824.63
2022-12-11T06:32:26.844Z,100829.00
2022-12-11T06:34:53.439Z,100823.78
2022-12-11T06:37:19.936Z,100827.28
2022-12-11T06:39:46.442Z,100830.69
2022-12-11T06:42:14.339Z,100829.06
2022-12-11T06:44:40.834Z,100839.75
2022-12-11T06:47:07.354Z,100827.44
2022-12-11T06:49:33.868Z,100833.75
2022-12-11T06:52:00.389Z,100831.09
2022-12-11T06:54:27.332Z,100842.56
2022-12-11T06:56:53.812Z,100828.44
2022-12-11T06:59:21.780Z,100842.56
2022-12-11T07:01:48.374Z,100842.41
2022-12-11T07:04:14.943Z,100839.75
2022-12-11T07:06:41.508Z,100833.47
2022-12-11T07:09:07.967Z,100836.97
2022-12-11T07:11:34.540Z,100841.41
2022-12-11T07:14:01.141Z,100844.06
2022-12-11T07:16:29.070Z,100844.94
2022-12-11T07:18:55.700Z,100830.88
2022-12-11T07:21:22.328Z,100844.06
2022-12-11T07:23:50.041Z,100843.22
2022-12-11T07:26:18.447Z,100837.09
2022-12-11T07:28:45.756Z,100832.81
2022-12-11T07:31:14.992Z,100836.50
2022-12-11T07:33:43.134Z,100834.78
2022-12-11T07:36:12.082Z,100841.94
2022-12-11T07:38:39.138Z,100834.00
2022-12-11T07:41:07.375Z,100837.56
2022-12-11T07:43:34.420Z,100843.91
2022-12-11T07:46:01.299Z,100853.66
2022-12-11T07:48:27.840Z,100850.94
2022-12-11T07:50:55.766Z,100853.50
2022-12-11T07:53:22.262Z,100849.16
2022-12-11T07:55:48.779Z,100859.66
2022-12-11T07:58:15.316Z,100854.22
2022-12-11T08:00:44.021Z,100860.38
2022-12-11T08:03:10.583Z,100856.78
2022-12-11T08:05:37.114Z,100847.94
2022-12-11T08:08:05.169Z,100861.38
2022-12-11T08:10:31.881Z,100857.00
2022-12-11T08:12:58.432Z,100862.31
2022-12-11T08:15:24.914Z,100857.97
2022-12-11T08:17:51.487Z,100860.53
2022-12-11T08:20:17.995Z,100856.06
2022-12-11T08:22:44.526Z,100861.38
2022-12-11T08:25:12.706Z,100858.72
2022-12-11T08:27:39.466Z,100868.47
2022-12-11T08:30:07.204Z,100856.25
2022-12-11T08:32:34.370Z,100857.09
2022-12-11T08:35:01.296Z,100856.25
2022-12-11T08:37:27.899Z,100858.09
2022-12-11T08:39:54.437Z,100852.88
2022-12-11T08:42:22.339Z,100857.41
2022-12-11T08:44:48.925Z,100843.38
2022-12-11T08:47:15.505Z,100847.81
2022-12-11T08:49:42.094Z,100840.78
2022-12-11T08:52:08.749Z,100848.69
2022-12-11T08:54:36.672Z,100843.50
2022-12-11T08:57:03.307Z,100848.03
2022-12-11T08:59:31.387Z,100848.97
2022-12-11T09:01:58.055Z,100844.53
2022-12-11T09:04:24.634Z,100859.41
2022-12-11T09:06:51.168Z,100854.97
2022-12-11T09:09:17.935Z,100868.25
2022-12-11T09:11:44.599Z,100861.94
2022-12-11T09:14:11.144Z,100866.16
2022-12-11T09:16:40.384Z,100874.88
2022-12-11T09:19:09.433Z,100875.91
2022-12-11T09:21:35.983Z,100875.03
2022-12-11T09:24:02.583Z,100877.59
2022-12-11T09:26:30.129Z,100871.28
2022-12-11T09:28:57.327Z,100867.78
2022-12-11T09:31:25.780Z,100859.75
2022-12-11T09:33:55.709Z,100859.75
2022-12-11T09:36:22.932Z,100866.00
2022-12-11T09:38:49.531Z,100859.75
2022-12-11T09:41:28.991Z,100852.66
2022-12-11T09:44:02.446Z,100848.97
2022-12-11T09:46:33.811Z,100849.69
2022-12-11T09:49:03.761Z,100845.06
2022-12-11T09:51:39.328Z,100844.06
2022-12-11T09:54:06.298Z,100844.75
2022-12-11T09:56:35.992Z,100850.84
2022-12-11T09:59:13.040Z,100841.88
2022-12-11T10:01:47.022Z,100837.25
2022-12-11T10:04:30.301Z,100830.84
2022-12-11T10:07:06.392Z,100825.38
2022-12-11T10:09:39.199Z,100830.69
2022-12-11T10:12:19.206Z,100822.66
2022-12-11T10:15:13.606Z,100825.25
2022-12-11T10:17:42.722Z,100819.81
2022-12-11T10:20:20.368Z,100819.75
2022-12-11T10:22:48.113Z,100819.81
2022-12-11T10:25:20.625Z,100815.47
2022-12-11T10:27:47.317Z,100812.91
2022-12-11T10:30:16.525Z,100810.94
2022-12-11T10:32:50.323Z,100812.72
2022-12-11T10:35:27.835Z,100809.94
2022-12-11T10:37:57.408Z,100803.28
2022-12-11T10:40:25.829Z,100806.44
2022-12-11T10:42:53.472Z,100803.56
2022-12-11T10:45:20.548Z,100795.41
2022-12-11T10:47:47.036Z,100803.22
2022-12-11T10:50:24.621Z,100811.28
2022-12-11T10:52:51.567Z,100809.72
2022-12-11T10:55:21.510Z,100806.28
2022-12-11T10:57:57.020Z,100798.25
2022-12-11T11:00:32.879Z,100793.16
2022-12-11T11:03:01.251Z,100797.72
2022-12-11T11:05:31.770Z,100788.78
2022-12-11T11:08:19.946Z,100787.69
2022-12-11T11:10:51.661Z,100784.88
2022-12-11T11:13:21.142Z,100777.69
2022-12-11T11:15:48.414Z,100776.56
2022-12-11T11:18:23.542Z,100778.03
2022-12-11T11:20:51.606Z,100776.06
2022-12-11T11:23:20.054Z,100767.78
2022-12-11T11:25:51.138Z,100767.53
2022-12-11T11:28:20.322Z,100761.34
2022-12-11T11:30:57.984Z,100762.09
2022-12-11T11:33:25.238Z,100751.47
2022-12-11T11:35:54.383Z,100753.19
2022-12-11T11:38:25.179Z,100745.91
2022-12-11T11:41:04.208Z,100743.19
2022-12-11T11:43:38.617Z,100749.34
2022-12-11T11:46:12.174Z,100749.44
2022-12-11T11:48:46.605Z,100745.84
2022-12-11T11:51:19.905Z,100738.66
2022-12-11T11:53:48.273Z,100744.63
2022-12-11T11:56:20.064Z,100736.41
2022-12-11T11:58:53.795Z,100743.41
2022-12-11T12:01:20.924Z,100734.50
2022-12-11T12:03:49.189Z,100740.59
2022-12-11T12:06:28.668Z,100735.28
2022-12-11T12:09:01.148Z,100733.31
2022-12-11T12:11:34.924Z,100729.44
2022-12-11T12:14:43.775Z,100731.06
2022-12-11T12:17:12.499Z,100730.06
2022-12-11T12:19:49.720Z,100734.25
2022-12-11T12:22:39.180Z,100726.09
2022-12-11T12:25:16.459Z,100732.94
2022-12-11T12:27:52.833Z,100741.00
2022-12-11T12:30:23.462Z,100733.88
2022-12-11T12:33:02.751Z,100737.38
2022-12-11T12:35:35.863Z,100732.16
2022-12-11T12:38:12.819Z,100725.16
2022-12-11T12:40:50.354Z,100724.16
2022-12-11T12:43:36.582Z,100720.56
2022-12-11T12:46:14.417Z,100718.84
2022-12-11T12:48:41.578Z,100718.84
2022-12-11T12:51:13.447Z,100718.84
2022-12-11T12:53:45.733Z,100714.50
2022-12-11T12:56:12.902Z,100715.44
2022-12-11T12:58:44.665Z,100715.53
2022-12-11T13:01:17.168Z,100715.78
2022-12-11T13:03:54.205Z,100717.59
2022-12-11T13:06:35.648Z,100706.94
2022-12-11T13:09:17.280Z,100706.13
2022-12-11T13:11:45.180Z,100707.06
2022-12-11T13:14:26.635Z,100706.00
2022-12-11T13:17:04.718Z,100701.47
2022-12-11T13:19:37.634Z,100700.63
2022-12-11T13:22:21.702Z,100705.94
2022-12-11T13:24:57.477Z,100702.34
2022-12-11T13:27:25.841Z,100700.44
2022-12-11T13:30:04.221Z,100696.91
2022-12-11T13:32:31.355Z,100697.97
2022-12-11T13:35:00.148Z,100695.50
2022-12-11T13:37:31.306Z,100694.72
2022-12-11T13:39:59.816Z,100696.59
2022-12-11T13:42:30.476Z,100693.00
2022-12-11T13:44:57.598Z,100696.44
2022-12-11T13:47:24.976Z,100694.72
2022-12-11T13:49:55.401Z,100695.66
2022-12-11T13:52:24.081Z,100698.31
2022-12-11T13:54:52.711Z,100694.72
2022-12-11T13:57:23.108Z,100690.25
2022-12-11T13:59:51.403Z,100688.47
2022-12-11T14:02:21.270Z,100690.06
2022-12-11T14:04:49.656Z,100697.03
2022-12-11T14:07:20.608Z,100696.25
2022-12-11T14:09:47.202Z,100700.69
2022-12-11T14:12:21.483Z,100693.59
2022-12-11T14:14:51.403Z,100696.31
2022-12-11T14:17:23.943Z,100700.97
2022-12-11T14:19:50.599Z,100697.72
2022-12-11T14:22:19.720Z,100696.78
2022-12-11T14:24:51.298Z,100699.53
2022-12-11T14:27:18.478Z,100698.69
2022-12-11T14:29:47.019Z,100696.09
2022-12-11T14:32:20.160Z,100705.88
2022-12-11T14:34:49.573Z,100706.06
2022-12-11T14:37:20.151Z,100707.06
2022-12-11T14:39:54.895Z,100706.22
2022-12-11T14:42:24.942Z,100702.78
2022-12-11T14:44:56.715Z,100697.66
2022-12-11T14:47:27.162Z,100698.59
2022-12-11T14:49:58.193Z,100701.34
2022-12-11T14:52:30.324Z,100697.81
2022-12-11T14:55:02.906Z,100696.97
2022-12-11T14:57:33.253Z,100685.50
2022-12-11T15:00:02.372Z,100689.97
2022-12-11T15:02:31.957Z,100677.69
2022-12-11T15:05:14.595Z,100676.00
2022-12-11T15:07:43.209Z,100684.91
2022-12-11T15:10:22.877Z,100675.13
2022-12-11T15:12:49.882Z,100677.88
2022-12-11T15:15:19.014Z,100680.53
2022-12-11T15:17:52.545Z,100683.19
2022-12-11T15:20:26.842Z,100688.56
2022-12-11T15:22:54.700Z,100693.03
2022-12-11T15:25:24.012Z,100701.97
2022-12-11T15:27:52.807Z,100706.41
2022-12-11T15:30:29.904Z,100702.97
2022-12-11T15:33:19.394Z,100699.56
2022-12-11T15:36:00.636Z,100694.25
2022-12-11T15:38:35.992Z,100704.03
2022-12-11T15:41:03.936Z,100697.84
2022-12-11T15:43:34.473Z,100699.63
2022-12-11T15:46:03.289Z,100702.28
2022-12-11T15:48:29.943Z,100701.44
2022-12-11T15:50:56.465Z,100700.56
2022-12-11T15:53:23.082Z,100695.25
2022-12-11T15:55:49.992Z,100695.25
2022-12-11T15:58:19.763Z,100689.00
2022-12-11T16:00:46.350Z,100684.63
2022-12-11T16:03:16.484Z,100690.91
2022-12-11T16:05:43.539Z,100705.13
2022-12-11T16:08:13.656Z,100705.22
2022-12-11T16:10:40.331Z,100695.63
2022-12-11T16:13:06.832Z,100694.75
2022-12-11T16:15:33.511Z,100696.56
2022-12-11T16:18:01.572Z,100697.50
2022-12-11T16:20:29.986Z,100689.63
2022-12-11T16:22:57.064Z,100707.38
2022-12-11T16:25:23.675Z,100695.09
2022-12-11T16:27:50.393Z,100696.88
2022-12-11T16:30:17.243Z,100697.84
2022-12-11T16:32:43.811Z,100688.16
2022-12-11T16:35:10.547Z,100698.69
2022-12-11T16:37:38.750Z,100694.34
2022-12-11T16:40:06.320Z,100690.66
2022-12-11T16:42:32.985Z,100701.28
2022-12-11T16:45:04.391Z,100692.44
2022-12-11T16:47:30.942Z,100695.19
2022-12-11T16:49:58.135Z,100690.81
2022-12-11T16:52:24.739Z,100697.06
2022-12-11T16:54:52.658Z,100688.25
2022-12-11T16:57:19.265Z,100692.69
2022-12-11T16:59:47.248Z,100688.06
2022-12-11T17:02:13.981Z,100694.22
2022-12-11T17:04:40.882Z,100688.94
2022-12-11T17:07:07.679Z,100695.09
2022-12-11T17:09:34.451Z,100701.28
2022-12-11T17:12:02.636Z,100697.69
2022-12-11T17:14:29.201Z,100699.41
2022-12-11T17:16:57.071Z,100700.25
2022-12-11T17:19:23.649Z,100699.41
2022-12-11T17:21:51.770Z,100699.41
2022-12-11T17:24:18.557Z,100702.06
2022-12-11T17:26:45.130Z,100697.69
2022-12-11T17:29:13.597Z,100696.81
2022-12-11T17:31:40.657Z,100690.66
2022-12-11T17:34:07.751Z,100696.03
2022-12-11T17:36:34.477Z,100688.94
2022-12-11T17:39:01.010Z,100684.56
2022-12-11T17:41:27.511Z,100690.81
2022-12-11T17:43:54.151Z,100684.47
2022-12-11T17:46:22.444Z,100692.38
2022-12-11T17:48:49.020Z,100688.00
2022-12-11T17:51:17.287Z,100681.81
2022-12-11T17:53:43.761Z,100687.06
2022-12-11T17:56:10.500Z,100682.75
2022-12-11T17:58:36.995Z,100684.47
2022-12-11T18:01:07.540Z,100684.47
2022-12-11T18:03:36.644Z,100680.22
2022-12-11T18:06:05.379Z,100682.06
2022-12-11T18:08:32.397Z,100680.53
2022-12-11T18:11:05.024Z,100683.28
2022-12-11T18:13:31.761Z,100685.16
2022-12-11T18:16:02.420Z,100679.06
2022-12-11T18:18:29.068Z,100686.19
2022-12-11T18:20:57.259Z,100683.69
2022-12-11T18:23:23.956Z,100679.34
2022-12-11T18:25:50.584Z,100674.19
2022-12-11T18:28:17.200Z,100687.38
2022-12-11T18:30:43.907Z,100681.22
2022-12-11T18:33:10.616Z,100682.16
2022-12-11T18:35:37.321Z,100676.09
2022-12-11T18:38:05.237Z,100680.53
2022-12-11T18:40:31.915Z,100680.59
2022-12-11T18:42:58.517Z,100689.44
2022-12-11T18:45:25.112Z,100687.72
2022-12-11T18:47:51.827Z,100687.81
2022-12-11T18:50:18.610Z,100682.59
2022-12-11T18:52:45.244Z,100678.13
2022-12-11T18:55:13.333Z,100676.22
2022-12-11T18:57:40.307Z,100670.06
2022-12-11T19:00:08.222Z,100678.13
2022-12-11T19:02:35.320Z,100679.00
2022-12-11T19:05:02.042Z,100681.72
2022-12-11T19:07:28.603Z,100684.44
2022-12-11T19:09:55.234Z,100671.28
2022-12-11T19:12:23.095Z,100673.16
2022-12-11T19:14:49.618Z,100680.19
2022-12-11T19:17:16.160Z,100680.97
2022-12-11T19:19:42.724Z,100676.59
2022-12-11T19:22:09.289Z,100683.63
2022-12-11T19:24:35.937Z,100681.91
2022-12-11T19:27:02.465Z,100685.41
2022-12-11T19:29:31.227Z,100674.78
2022-12-11T19:31:58.943Z,100675.66
2022-12-11T19:34:25.441Z,100677.44
2022-12-11T19:36:51.982Z,100680.00
2022-12-11T19:39:18.594Z,100685.31
2022-12-11T19:41:45.893Z,100695.06
2022-12-11T19:44:12.523Z,100690.63
2022-12-11T19:46:40.975Z,100690.63
2022-12-11T19:49:07.695Z,100683.63
2022-12-11T19:51:36.648Z,100689.75
2022-12-11T19:54:04.143Z,100687.97
2022-12-11T19:56:31.646Z,100688.75
2022-12-11T19:58:58.503Z,100674.53
2022-12-11T20:01:27.549Z,100671.78
2022-12-11T20:03:56.968Z,100680.59
2022-12-11T20:06:24.159Z,100679.69
2022-12-11T20:08:50.871Z,100680.69
2022-12-11T20:11:19.027Z,100674.53
2022-12-11T20:13:46.185Z,100671.09
2022-12-11T20:16:13.448Z,100675.66
2022-12-11T20:18:40.068Z,100670.41
2022-12-11T20:21:09.530Z,100665.97
2022-12-11T20:23:36.081Z,100671.28
2022-12-11T20:26:07.015Z,100663.38
2022-12-11T20:28:33.548Z,100667.84
2022-12-11T20:31:04.090Z,100668.78
2022-12-11T20:33:30.601Z,100667.84
2022-12-11T20:35:57.310Z,100663.31
2022-12-11T20:38:27.748Z,100660.66
2022-12-11T20:40:57.827Z,100665.97
2022-12-11T20:43:24.340Z,100665.88
2022-12-11T20:45:50.989Z,100671.09
2022-12-11T20:48:17.876Z,100669.22
2022-12-11T20:50:44.467Z,100665.63
2022-12-11T20:53:10.971Z,100662.03
2022-12-11T20:55:40.714Z,100674.38
2022-12-11T20:58:07.478Z,100674.38
2022-12-11T21:00:35.213Z,100672.66
2022-12-11T21:03:01.792Z,100676.22
2022-12-11T21:05:28.423Z,100678.88
2022-12-11T21:07:55.437Z,100674.53
2022-12-11T21:10:22.642Z,100682.50
2022-12-11T21:12:50.568Z,100673.59
2022-12-11T21:15:17.146Z,100676.16
2022-12-11T21:17:43.773Z,100672.66
2022-12-11T21:20:10.866Z,100671.88
2022-12-11T21:22:37.551Z,100675.31
2022-12-11T21:25:04.611Z,100673.59
2022-12-11T21:27:31.149Z,100679.75
2022-12-11T21:29:59.120Z,100671.72
2022-12-11T21:32:25.731Z,100674.38
2022-12-11T21:34:52.278Z,100672.56
2022-12-11T21:37:18.806Z,100674.38
2022-12-11T21:39:45.474Z,100673.50
2022-12-11T21:42:11.955Z,100669.91
2022-12-11T21:45:31.410Z,100674.28
2022-12-11T21:47:26.372Z,100673.31
2022-12-11T21:49:52.936Z,100674.19
2022-12-11T21:52:19.632Z,100668.81
2022-12-11T21:54:46.166Z,100673.06
2022-12-11T21:57:12.678Z,100667.88
2022-12-11T21:59:39.197Z,100668.72
2022-12-11T22:02:05.862Z,100663.41
2022-12-11T22:04:33.746Z,100664.97
2022-12-11T22:07:00.226Z,100675.59
2022-12-11T22:09:26.837Z,100670.28
2022-12-11T22:11:58.105Z,100664.97
2022-12-11T22:14:25.751Z,100664.97
2022-12-11T22:16:52.281Z,100664.78
2022-12-11T22:19:18.860Z,100658.53
2022-12-11T22:21:46.937Z,100655.88
2022-12-11T22:24:13.546Z,100663.91
2022-12-11T22:26:40.272Z,100661.34
2022-12-11T22:29:07.247Z,100669.22
2022-12-11T22:31:33.887Z,100660.41
2022-12-11T22:34:00.576Z,100663.84
2022-12-11T22:36:27.281Z,100664.72
2022-12-11T22:38:55.443Z,100667.25
2022-12-11T22:41:24.750Z,100666.31
2022-12-11T22:43:51.890Z,100665.28
2022-12-11T22:46:19.848Z,100668.78
2022-12-11T22:48:46.429Z,100667.06
2022-12-11T22:51:13.039Z,100659.03
2022-12-11T22:53:39.580Z,100663.41
2022-12-11T22:56:08.966Z,100666.94
2022-12-11T22:58:35.806Z,100666.81
2022-12-11T23:01:03.434Z,100659.72
2022-12-11T23:03:30.039Z,100657.06
2022-12-11T23:05:58.792Z,100657.91
2022-12-11T23:08:28.601Z,100665.03
2022-12-11T23:10:55.242Z,100659.72
2022-12-11T23:13:23.188Z,100667.69
2022-12-11T23:15:49.696Z,100668.66
2022-12-11T23:18:16.225Z,100668.72
2022-12-11T23:20:42.753Z,100667.78
2022-12-11T23:23:09.364Z,100664.28
2022-12-11T23:25:35.877Z,100670.44
2022-12-11T23:28:02.405Z,100674.78
2022-12-11T23:30:30.504Z,100666.81
2022-12-11T23:32:57.102Z,100666.81
2022-12-11T23:35:23.596Z,100664.09
2022-12-11T23:37:50.110Z,100667.59
2022-12-11T23:40:16.798Z,100676.44
2022-12-11T23:42:43.289Z,100667.53
2022-12-11T23:45:10.266Z,100670.06
2022-12-11T23:47:38.317Z,100666.47
2022-12-11T23:50:05.602Z,100662.91
2022-12-11T23:52:32.105Z,100657.59
2022-12-11T23:54:58.606Z,100662.03
2022-12-11T23:57:25.137Z,100663.91
2022-12-11T23:59:51.705Z,100664.94
